Terminal Aerodrome Forecast
Issued by NWS

Home | Current Version | Previous Version | Text Only | Print | Product List | Glossary Off
Versions: 1 2 3 4 5 6 7 8 9 10 11 12 13 14 15 16 17 18 19 20 21

000
FTUS43 KICT 151012 AAC
TAFRSL
TAF AMD
KRSL 151012Z 1510/1606 33025G35KT 5SM RA BKN008 OVC015
      TEMPO 1510/1514 P6SM NSW SCT008 OVC015
     FM151400 33025G35KT P6SM OVC025
     FM152000 32025G35KT P6SM OVC035=

USA.gov is the U.S. government's official web portal to all federal, state and local government web resources and services.